RJDC(METAR)
05/24 14:00
METAR RJDC 240500Z 29011KT 260V330 CAVOK 29/10 Q1012 RMK A2991=
戻る
トップページへ戻る
IMOC Co,.Ltd.